sensor_id;sensor_type;location;lat;lon;timestamp;temperature;humidity
3626;DHT22;1827;50.534;8.316;2023-03-04T00:00:05;-3.50;1.00
3626;DHT22;1827;50.534;8.316;2023-03-04T00:02:35;-3.60;1.00
3626;DHT22;1827;50.534;8.316;2023-03-04T00:05:02;-3.60;1.00
3626;DHT22;1827;50.534;8.316;2023-03-04T00:07:28;-3.50;1.00
3626;DHT22;1827;50.534;8.316;2023-03-04T00:09:54;-3.50;1.00
3626;DHT22;1827;50.534;8.316;2023-03-04T00:12:20;-3.40;1.00
3626;DHT22;1827;50.534;8.316;2023-03-04T00:14:47;-3.40;10.80
3626;DHT22;1827;50.534;8.316;2023-03-04T00:17:16;-3.30;12.60
3626;DHT22;1827;50.534;8.316;2023-03-04T00:19:42;-3.30;17.10
3626;DHT22;1827;50.534;8.316;2023-03-04T00:22:10;-3.20;47.10
3626;DHT22;1827;50.534;8.316;2023-03-04T00:24:36;-3.20;65.10
3626;DHT22;1827;50.534;8.316;2023-03-04T00:27:05;-3.00;99.60
3626;DHT22;1827;50.534;8.316;2023-03-04T00:29:31;-2.90;99.90
3626;DHT22;1827;50.534;8.316;2023-03-04T00:31:57;-2.80;99.90
3626;DHT22;1827;50.534;8.316;2023-03-04T00:34:22;-2.80;99.90
3626;DHT22;1827;50.534;8.316;2023-03-04T00:36:49;-2.70;99.90
3626;DHT22;1827;50.534;8.316;2023-03-04T00:39:16;-2.50;99.90
3626;DHT22;1827;50.534;8.316;2023-03-04T00:41:42;-2.50;99.90
3626;DHT22;1827;50.534;8.316;2023-03-04T00:44:10;-2.40;99.90
3626;DHT22;1827;50.534;8.316;2023-03-04T00:46:37;-2.40;99.90
3626;DHT22;1827;50.534;8.316;2023-03-04T00:49:04;-2.50;99.90
3626;DHT22;1827;50.534;8.316;2023-03-04T00:51:32;-2.50;99.90
3626;DHT22;1827;50.534;8.316;2023-03-04T00:54:00;-2.40;99.90
3626;DHT22;1827;50.534;8.316;2023-03-04T00:56:30;-2.30;99.90
3626;DHT22;1827;50.534;8.316;2023-03-04T00:58:59;-2.30;99.90
3626;DHT22;1827;50.534;8.316;2023-03-04T01:01:25;-2.30;99.90
3626;DHT22;1827;50.534;8.316;2023-03-04T01:03:51;-2.20;99.90
3626;DHT22;1827;50.534;8.316;2023-03-04T01:06:19;-2.30;99.90
3626;DHT22;1827;50.534;8.316;2023-03-04T01:08:49;-2.10;99.90
3626;DHT22;1827;50.534;8.316;2023-03-04T01:11:15;-2.20;99.90
3626;DHT22;1827;50.534;8.316;2023-03-04T01:13:41;-2.10;99.90
3626;DHT22;1827;50.534;8.316;2023-03-04T01:16:11;-2.00;99.90
3626;DHT22;1827;50.534;8.316;2023-03-04T01:18:40;-2.00;99.90
3626;DHT22;1827;50.534;8.316;2023-03-04T01:21:08;-2.00;99.90
3626;DHT22;1827;50.534;8.316;2023-03-04T01:23:34;-2.00;99.90
3626;DHT22;1827;50.534;8.316;2023-03-04T01:26:01;-2.00;99.90
3626;DHT22;1827;50.534;8.316;2023-03-04T01:28:28;-2.10;99.90
3626;DHT22;1827;50.534;8.316;2023-03-04T01:30:56;-2.20;99.90
3626;DHT22;1827;50.534;8.316;2023-03-04T01:33:24;-2.10;99.90
3626;DHT22;1827;50.534;8.316;2023-03-04T01:35:50;-2.00;99.90
3626;DHT22;1827;50.534;8.316;2023-03-04T01:38:16;-2.00;99.90
3626;DHT22;1827;50.534;8.316;2023-03-04T01:40:44;-1.90;99.90
3626;DHT22;1827;50.534;8.316;2023-03-04T01:43:17;-1.90;99.90
3626;DHT22;1827;50.534;8.316;2023-03-04T01:45:47;-1.70;99.90
3626;DHT22;1827;50.534;8.316;2023-03-04T01:48:18;-1.80;99.90
3626;DHT22;1827;50.534;8.316;2023-03-04T01:50:49;-1.70;99.90
3626;DHT22;1827;50.534;8.316;2023-03-04T01:53:26;-1.70;99.90
3626;DHT22;1827;50.534;8.316;2023-03-04T01:56:01;-1.70;99.90
3626;DHT22;1827;50.534;8.316;2023-03-04T01:58:33;-1.60;99.90
3626;DHT22;1827;50.534;8.316;2023-03-04T02:00:59;-1.60;99.90
3626;DHT22;1827;50.534;8.316;2023-03-04T02:03:27;-1.50;99.90
3626;DHT22;1827;50.534;8.316;2023-03-04T02:05:54;-1.50;99.90
3626;DHT22;1827;50.534;8.316;2023-03-04T02:08:22;-1.60;99.90
3626;DHT22;1827;50.534;8.316;2023-03-04T02:10:51;-1.60;99.90
3626;DHT22;1827;50.534;8.316;2023-03-04T02:13:18;-1.50;1.00
3626;DHT22;1827;50.534;8.316;2023-03-04T02:15:45;-1.50;1.00
3626;DHT22;1827;50.534;8.316;2023-03-04T02:21:08;-1.10;1.00
3626;DHT22;1827;50.534;8.316;2023-03-04T02:24:22;-1.20;1.00
3626;DHT22;1827;50.534;8.316;2023-03-04T02:26:40;-1.30;1.00
3626;DHT22;1827;50.534;8.316;2023-03-04T02:29:11;-1.30;99.90
3626;DHT22;1827;50.534;8.316;2023-03-04T02:31:46;-1.50;99.90
3626;DHT22;1827;50.534;8.316;2023-03-04T02:34:18;-1.40;1.00
3626;DHT22;1827;50.534;8.316;2023-03-04T02:36:46;-1.40;1.00
3626;DHT22;1827;50.534;8.316;2023-03-04T02:39:37;-1.30;1.00
3626;DHT22;1827;50.534;8.316;2023-03-04T02:42:14;-1.30;1.00
3626;DHT22;1827;50.534;8.316;2023-03-04T02:44:46;-1.30;1.00
3626;DHT22;1827;50.534;8.316;2023-03-04T02:47:18;-1.20;1.00
3626;DHT22;1827;50.534;8.316;2023-03-04T02:49:46;-1.20;1.00
3626;DHT22;1827;50.534;8.316;2023-03-04T02:52:23;-1.20;1.00
3626;DHT22;1827;50.534;8.316;2023-03-04T02:54:50;-1.00;1.00
3626;DHT22;1827;50.534;8.316;2023-03-04T02:57:20;-1.00;1.00
3626;DHT22;1827;50.534;8.316;2023-03-04T02:59:51;-0.90;1.00
3626;DHT22;1827;50.534;8.316;2023-03-04T03:02:21;-0.90;1.00
3626;DHT22;1827;50.534;8.316;2023-03-04T03:04:48;-1.00;1.00
3626;DHT22;1827;50.534;8.316;2023-03-04T03:07:17;-1.00;1.00
3626;DHT22;1827;50.534;8.316;2023-03-04T03:09:43;-1.00;1.00
3626;DHT22;1827;50.534;8.316;2023-03-04T03:12:09;-1.00;1.00
3626;DHT22;1827;50.534;8.316;2023-03-04T03:14:38;-1.00;1.00
3626;DHT22;1827;50.534;8.316;2023-03-04T03:17:09;-0.90;1.00
3626;DHT22;1827;50.534;8.316;2023-03-04T03:19:36;-0.80;1.00
3626;DHT22;1827;50.534;8.316;2023-03-04T03:22:06;-0.80;1.00
3626;DHT22;1827;50.534;8.316;2023-03-04T03:24:32;-0.70;1.00
3626;DHT22;1827;50.534;8.316;2023-03-04T03:26:58;-0.80;1.00
3626;DHT22;1827;50.534;8.316;2023-03-04T03:29:26;-0.80;1.00
3626;DHT22;1827;50.534;8.316;2023-03-04T03:31:54;-0.80;1.00
3626;DHT22;1827;50.534;8.316;2023-03-04T03:34:25;-0.80;1.00
3626;DHT22;1827;50.534;8.316;2023-03-04T03:36:54;-0.70;1.00
3626;DHT22;1827;50.534;8.316;2023-03-04T03:39:20;-0.70;1.00
3626;DHT22;1827;50.534;8.316;2023-03-04T03:41:48;-0.60;1.00
3626;DHT22;1827;50.534;8.316;2023-03-04T03:44:15;-0.60;1.00
3626;DHT22;1827;50.534;8.316;2023-03-04T03:46:40;-0.70;1.00
3626;DHT22;1827;50.534;8.316;2023-03-04T03:49:08;-0.70;1.00
3626;DHT22;1827;50.534;8.316;2023-03-04T03:51:34;-0.70;1.00
3626;DHT22;1827;50.534;8.316;2023-03-04T03:54:00;-0.70;1.00
3626;DHT22;1827;50.534;8.316;2023-03-04T03:56:26;-0.70;1.00
3626;DHT22;1827;50.534;8.316;2023-03-04T03:58:53;-0.70;1.00
3626;DHT22;1827;50.534;8.316;2023-03-04T04:01:22;-0.70;1.00
3626;DHT22;1827;50.534;8.316;2023-03-04T04:03:52;-0.70;1.00
3626;DHT22;1827;50.534;8.316;2023-03-04T04:06:20;-0.60;1.00
3626;DHT22;1827;50.534;8.316;2023-03-04T04:08:46;-0.50;1.00
3626;DHT22;1827;50.534;8.316;2023-03-04T04:11:13;-0.50;1.00
3626;DHT22;1827;50.534;8.316;2023-03-04T04:13:42;-0.50;1.00
3626;DHT22;1827;50.534;8.316;2023-03-04T04:16:10;-0.60;1.00
3626;DHT22;1827;50.534;8.316;2023-03-04T04:18:36;-0.50;1.00
3626;DHT22;1827;50.534;8.316;2023-03-04T04:21:03;-0.60;1.00
3626;DHT22;1827;50.534;8.316;2023-03-04T04:23:29;-0.50;1.00
3626;DHT22;1827;50.534;8.316;2023-03-04T04:25:56;-0.40;1.00
3626;DHT22;1827;50.534;8.316;2023-03-04T04:28:22;-0.40;1.00
3626;DHT22;1827;50.534;8.316;2023-03-04T04:30:49;-0.40;1.00
3626;DHT22;1827;50.534;8.316;2023-03-04T04:33:15;-0.30;1.00
3626;DHT22;1827;50.534;8.316;2023-03-04T04:35:41;-0.30;1.00
3626;DHT22;1827;50.534;8.316;2023-03-04T04:38:09;-0.30;1.00
3626;DHT22;1827;50.534;8.316;2023-03-04T04:40:38;-0.30;1.00
3626;DHT22;1827;50.534;8.316;2023-03-04T04:43:04;-0.40;1.00
3626;DHT22;1827;50.534;8.316;2023-03-04T04:45:30;-0.30;1.00
3626;DHT22;1827;50.534;8.316;2023-03-04T04:47:56;-0.20;1.00
3626;DHT22;1827;50.534;8.316;2023-03-04T04:50:25;-0.30;1.00
3626;DHT22;1827;50.534;8.316;2023-03-04T04:52:51;-0.20;1.00
3626;DHT22;1827;50.534;8.316;2023-03-04T04:55:18;-0.30;1.00
3626;DHT22;1827;50.534;8.316;2023-03-04T04:57:45;-0.20;1.00
3626;DHT22;1827;50.534;8.316;2023-03-04T05:00:14;-0.20;1.00
3626;DHT22;1827;50.534;8.316;2023-03-04T05:02:40;-0.20;1.00
3626;DHT22;1827;50.534;8.316;2023-03-04T05:05:06;-0.20;1.00
3626;DHT22;1827;50.534;8.316;2023-03-04T05:07:33;-0.20;1.00
3626;DHT22;1827;50.534;8.316;2023-03-04T05:09:59;-0.10;1.00
3626;DHT22;1827;50.534;8.316;2023-03-04T05:12:24;-0.10;1.00
3626;DHT22;1827;50.534;8.316;2023-03-04T05:14:50;-0.20;1.00
3626;DHT22;1827;50.534;8.316;2023-03-04T05:17:16;-0.10;1.00
3626;DHT22;1827;50.534;8.316;2023-03-04T05:19:42;-0.10;1.00
3626;DHT22;1827;50.534;8.316;2023-03-04T05:22:08;0.00;1.00
3626;DHT22;1827;50.534;8.316;2023-03-04T05:24:35;0.10;1.00
3626;DHT22;1827;50.534;8.316;2023-03-04T05:27:01;0.20;1.00
3626;DHT22;1827;50.534;8.316;2023-03-04T05:29:27;0.30;1.00
3626;DHT22;1827;50.534;8.316;2023-03-04T05:31:53;0.30;1.00
3626;DHT22;1827;50.534;8.316;2023-03-04T05:34:20;0.30;1.00
3626;DHT22;1827;50.534;8.316;2023-03-04T05:36:47;0.30;1.00
3626;DHT22;1827;50.534;8.316;2023-03-04T05:39:13;0.30;1.00
3626;DHT22;1827;50.534;8.316;2023-03-04T05:41:40;0.30;1.00
3626;DHT22;1827;50.534;8.316;2023-03-04T05:44:06;0.30;1.00
3626;DHT22;1827;50.534;8.316;2023-03-04T05:46:32;0.30;1.00
3626;DHT22;1827;50.534;8.316;2023-03-04T05:49:00;0.20;1.00
3626;DHT22;1827;50.534;8.316;2023-03-04T05:51:29;0.30;1.00
3626;DHT22;1827;50.534;8.316;2023-03-04T05:53:55;0.40;1.00
3626;DHT22;1827;50.534;8.316;2023-03-04T05:56:23;0.40;1.00
3626;DHT22;1827;50.534;8.316;2023-03-04T05:58:48;0.40;1.00
3626;DHT22;1827;50.534;8.316;2023-03-04T06:01:18;0.40;99.90
3626;DHT22;1827;50.534;8.316;2023-03-04T06:03:44;0.40;99.90
3626;DHT22;1827;50.534;8.316;2023-03-04T06:06:13;0.40;99.90
3626;DHT22;1827;50.534;8.316;2023-03-04T06:08:40;0.50;99.90
3626;DHT22;1827;50.534;8.316;2023-03-04T06:11:06;0.50;99.90
3626;DHT22;1827;50.534;8.316;2023-03-04T06:13:35;0.50;99.90
3626;DHT22;1827;50.534;8.316;2023-03-04T06:16:05;0.50;99.90
3626;DHT22;1827;50.534;8.316;2023-03-04T06:18:33;0.60;99.90
3626;DHT22;1827;50.534;8.316;2023-03-04T06:21:01;0.60;99.90
3626;DHT22;1827;50.534;8.316;2023-03-04T06:23:28;0.50;99.90
3626;DHT22;1827;50.534;8.316;2023-03-04T06:26:00;0.50;99.90
3626;DHT22;1827;50.534;8.316;2023-03-04T06:28:30;0.60;99.90
3626;DHT22;1827;50.534;8.316;2023-03-04T06:31:02;0.80;99.90
3626;DHT22;1827;50.534;8.316;2023-03-04T06:33:29;0.90;99.90
3626;DHT22;1827;50.534;8.316;2023-03-04T06:35:56;0.90;99.90
3626;DHT22;1827;50.534;8.316;2023-03-04T06:38:26;0.90;99.90
3626;DHT22;1827;50.534;8.316;2023-03-04T06:40:54;0.90;99.90
3626;DHT22;1827;50.534;8.316;2023-03-04T06:43:24;1.00;99.90
3626;DHT22;1827;50.534;8.316;2023-03-04T06:45:51;1.10;99.90
3626;DHT22;1827;50.534;8.316;2023-03-04T06:48:16;1.10;99.90
3626;DHT22;1827;50.534;8.316;2023-03-04T06:50:42;1.10;99.90
3626;DHT22;1827;50.534;8.316;2023-03-04T06:53:08;1.20;99.90
3626;DHT22;1827;50.534;8.316;2023-03-04T06:55:34;1.20;99.90
3626;DHT22;1827;50.534;8.316;2023-03-04T06:58:00;1.40;99.90
3626;DHT22;1827;50.534;8.316;2023-03-04T07:00:29;1.40;99.90
3626;DHT22;1827;50.534;8.316;2023-03-04T07:02:59;1.30;99.90
3626;DHT22;1827;50.534;8.316;2023-03-04T07:05:25;1.30;99.90
3626;DHT22;1827;50.534;8.316;2023-03-04T07:07:52;1.30;99.90
3626;DHT22;1827;50.534;8.316;2023-03-04T07:10:19;1.30;99.90
3626;DHT22;1827;50.534;8.316;2023-03-04T07:12:45;1.40;99.90
3626;DHT22;1827;50.534;8.316;2023-03-04T07:15:11;1.40;99.90
3626;DHT22;1827;50.534;8.316;2023-03-04T07:17:37;1.50;99.90
3626;DHT22;1827;50.534;8.316;2023-03-04T07:20:03;1.50;99.90
3626;DHT22;1827;50.534;8.316;2023-03-04T07:22:29;1.70;99.90
3626;DHT22;1827;50.534;8.316;2023-03-04T07:24:55;1.70;99.90
3626;DHT22;1827;50.534;8.316;2023-03-04T07:27:23;1.90;99.90
3626;DHT22;1827;50.534;8.316;2023-03-04T07:29:50;1.80;99.90
3626;DHT22;1827;50.534;8.316;2023-03-04T07:32:16;1.80;99.90
3626;DHT22;1827;50.534;8.316;2023-03-04T07:34:42;2.00;99.90
3626;DHT22;1827;50.534;8.316;2023-03-04T07:37:10;2.10;99.90
3626;DHT22;1827;50.534;8.316;2023-03-04T07:39:35;2.20;99.90
3626;DHT22;1827;50.534;8.316;2023-03-04T07:42:01;2.10;87.20
3626;DHT22;1827;50.534;8.316;2023-03-04T07:44:27;2.30;68.00
3626;DHT22;1827;50.534;8.316;2023-03-04T07:46:52;2.30;43.50
3626;DHT22;1827;50.534;8.316;2023-03-04T07:49:18;2.30;17.80
3626;DHT22;1827;50.534;8.316;2023-03-04T07:51:45;2.30;2.20
3626;DHT22;1827;50.534;8.316;2023-03-04T07:54:18;2.30;1.00
3626;DHT22;1827;50.534;8.316;2023-03-04T07:56:45;2.60;1.00
3626;DHT22;1827;50.534;8.316;2023-03-04T07:59:10;2.60;1.00
3626;DHT22;1827;50.534;8.316;2023-03-04T08:01:36;2.70;1.00
3626;DHT22;1827;50.534;8.316;2023-03-04T08:04:04;2.60;1.00
3626;DHT22;1827;50.534;8.316;2023-03-04T08:06:30;2.80;1.00
3626;DHT22;1827;50.534;8.316;2023-03-04T08:09:01;2.90;1.00
3626;DHT22;1827;50.534;8.316;2023-03-04T08:11:35;2.90;1.00
3626;DHT22;1827;50.534;8.316;2023-03-04T08:14:02;3.00;1.00
3626;DHT22;1827;50.534;8.316;2023-03-04T08:16:28;3.20;1.00
3626;DHT22;1827;50.534;8.316;2023-03-04T08:19:00;3.40;1.00
3626;DHT22;1827;50.534;8.316;2023-03-04T08:21:30;3.30;1.00
3626;DHT22;1827;50.534;8.316;2023-03-04T08:23:57;3.30;1.00
3626;DHT22;1827;50.534;8.316;2023-03-04T08:26:32;3.30;1.00
3626;DHT22;1827;50.534;8.316;2023-03-04T08:29:06;3.30;1.00
3626;DHT22;1827;50.534;8.316;2023-03-04T08:31:36;3.50;1.00
3626;DHT22;1827;50.534;8.316;2023-03-04T08:34:03;3.50;1.00
3626;DHT22;1827;50.534;8.316;2023-03-04T08:36:29;3.50;1.00
3626;DHT22;1827;50.534;8.316;2023-03-04T08:38:55;3.50;1.00
3626;DHT22;1827;50.534;8.316;2023-03-04T08:41:21;3.60;1.00
3626;DHT22;1827;50.534;8.316;2023-03-04T08:43:47;3.60;1.00
3626;DHT22;1827;50.534;8.316;2023-03-04T08:46:13;3.70;1.00
3626;DHT22;1827;50.534;8.316;2023-03-04T08:48:39;3.80;1.00
3626;DHT22;1827;50.534;8.316;2023-03-04T08:51:12;3.90;1.00
3626;DHT22;1827;50.534;8.316;2023-03-04T08:53:43;4.00;1.00
3626;DHT22;1827;50.534;8.316;2023-03-04T08:56:11;4.20;1.00
3626;DHT22;1827;50.534;8.316;2023-03-04T08:58:37;4.30;1.00
3626;DHT22;1827;50.534;8.316;2023-03-04T09:01:11;4.30;1.00
3626;DHT22;1827;50.534;8.316;2023-03-04T09:03:38;4.30;1.00
3626;DHT22;1827;50.534;8.316;2023-03-04T09:06:07;4.20;1.00
3626;DHT22;1827;50.534;8.316;2023-03-04T09:08:37;4.40;1.00
3626;DHT22;1827;50.534;8.316;2023-03-04T09:11:05;4.60;1.00
3626;DHT22;1827;50.534;8.316;2023-03-04T09:13:31;4.60;1.00
3626;DHT22;1827;50.534;8.316;2023-03-04T09:16:02;4.40;1.00
3626;DHT22;1827;50.534;8.316;2023-03-04T09:18:35;4.50;1.00
3626;DHT22;1827;50.534;8.316;2023-03-04T09:21:04;4.40;1.00
3626;DHT22;1827;50.534;8.316;2023-03-04T09:23:35;4.40;1.00
3626;DHT22;1827;50.534;8.316;2023-03-04T09:26:22;4.50;1.00
3626;DHT22;1827;50.534;8.316;2023-03-04T09:28:54;4.50;1.00
3626;DHT22;1827;50.534;8.316;2023-03-04T09:31:21;4.50;1.00
3626;DHT22;1827;50.534;8.316;2023-03-04T09:33:53;4.50;1.00
3626;DHT22;1827;50.534;8.316;2023-03-04T09:36:22;4.50;1.00
3626;DHT22;1827;50.534;8.316;2023-03-04T09:38:51;4.40;1.00
3626;DHT22;1827;50.534;8.316;2023-03-04T09:41:39;4.50;1.00
3626;DHT22;1827;50.534;8.316;2023-03-04T09:44:30;4.60;1.00
3626;DHT22;1827;50.534;8.316;2023-03-04T09:47:05;4.60;1.00
3626;DHT22;1827;50.534;8.316;2023-03-04T09:49:38;4.60;1.00
3626;DHT22;1827;50.534;8.316;2023-03-04T09:55:17;4.80;1.00
3626;DHT22;1827;50.534;8.316;2023-03-04T09:57:51;4.80;1.00
3626;DHT22;1827;50.534;8.316;2023-03-04T10:00:51;4.80;1.00
3626;DHT22;1827;50.534;8.316;2023-03-04T10:03:30;4.90;1.00
3626;DHT22;1827;50.534;8.316;2023-03-04T10:06:01;5.00;1.00
3626;DHT22;1827;50.534;8.316;2023-03-04T10:08:51;5.10;1.00
3626;DHT22;1827;50.534;8.316;2023-03-04T10:11:36;5.00;1.00
3626;DHT22;1827;50.534;8.316;2023-03-04T10:14:32;5.00;1.00
3626;DHT22;1827;50.534;8.316;2023-03-04T10:17:15;5.10;1.00
3626;DHT22;1827;50.534;8.316;2023-03-04T10:22:45;5.20;1.00
3626;DHT22;1827;50.534;8.316;2023-03-04T10:25:25;5.00;1.00
3626;DHT22;1827;50.534;8.316;2023-03-04T10:28:00;5.10;1.00
3626;DHT22;1827;50.534;8.316;2023-03-04T10:33:24;5.40;1.00
3626;DHT22;1827;50.534;8.316;2023-03-04T10:38:33;5.50;1.00
3626;DHT22;1827;50.534;8.316;2023-03-04T10:41:00;5.50;1.00
3626;DHT22;1827;50.534;8.316;2023-03-04T10:43:27;5.60;1.00
3626;DHT22;1827;50.534;8.316;2023-03-04T10:45:55;5.60;1.00
3626;DHT22;1827;50.534;8.316;2023-03-04T10:48:27;6.00;1.00
3626;DHT22;1827;50.534;8.316;2023-03-04T10:50:53;6.20;1.00
3626;DHT22;1827;50.534;8.316;2023-03-04T10:53:36;6.30;1.00
3626;DHT22;1827;50.534;8.316;2023-03-04T11:02:13;7.10;1.00
3626;DHT22;1827;50.534;8.316;2023-03-04T11:04:39;7.30;1.00
3626;DHT22;1827;50.534;8.316;2023-03-04T11:07:09;7.30;1.00
3626;DHT22;1827;50.534;8.316;2023-03-04T11:09:35;7.40;1.00
3626;DHT22;1827;50.534;8.316;2023-03-04T11:12:05;7.60;1.00
3626;DHT22;1827;50.534;8.316;2023-03-04T11:14:46;7.60;99.90
3626;DHT22;1827;50.534;8.316;2023-03-04T11:20:03;7.40;99.90
3626;DHT22;1827;50.534;8.316;2023-03-04T11:22:30;7.40;99.90
3626;DHT22;1827;50.534;8.316;2023-03-04T11:25:04;7.30;99.90
3626;DHT22;1827;50.534;8.316;2023-03-04T11:27:37;7.80;99.90
3626;DHT22;1827;50.534;8.316;2023-03-04T11:30:26;8.00;99.90
3626;DHT22;1827;50.534;8.316;2023-03-04T11:32:59;8.00;99.90
3626;DHT22;1827;50.534;8.316;2023-03-04T11:35:36;8.00;99.90
3626;DHT22;1827;50.534;8.316;2023-03-04T11:38:11;8.00;99.90
3626;DHT22;1827;50.534;8.316;2023-03-04T11:40:54;8.20;99.90
3626;DHT22;1827;50.534;8.316;2023-03-04T11:43:33;8.10;99.90
3626;DHT22;1827;50.534;8.316;2023-03-04T11:56:50;8.70;99.90
3626;DHT22;1827;50.534;8.316;2023-03-04T12:02:21;8.30;99.90
3626;DHT22;1827;50.534;8.316;2023-03-04T12:05:13;8.30;99.90
3626;DHT22;1827;50.534;8.316;2023-03-04T12:07:54;8.20;99.90
3626;DHT22;1827;50.534;8.316;2023-03-04T12:10:30;8.20;99.90
3626;DHT22;1827;50.534;8.316;2023-03-04T12:35:28;7.90;99.90
3626;DHT22;1827;50.534;8.316;2023-03-04T12:41:38;7.90;99.90
3626;DHT22;1827;50.534;8.316;2023-03-04T12:55:03;7.80;99.90
3626;DHT22;1827;50.534;8.316;2023-03-04T12:57:34;7.90;99.90
3626;DHT22;1827;50.534;8.316;2023-03-04T13:10:38;7.80;99.90
3626;DHT22;1827;50.534;8.316;2023-03-04T13:13:04;7.60;99.90
3626;DHT22;1827;50.534;8.316;2023-03-04T13:15:35;7.60;99.90
3626;DHT22;1827;50.534;8.316;2023-03-04T13:18:34;7.80;99.90
3626;DHT22;1827;50.534;8.316;2023-03-04T13:23:52;7.70;99.90
3626;DHT22;1827;50.534;8.316;2023-03-04T13:26:30;7.60;99.90
3626;DHT22;1827;50.534;8.316;2023-03-04T13:32:08;7.60;99.90
3626;DHT22;1827;50.534;8.316;2023-03-04T13:34:44;7.70;99.90
3626;DHT22;1827;50.534;8.316;2023-03-04T13:37:34;7.80;99.90
3626;DHT22;1827;50.534;8.316;2023-03-04T13:42:49;7.40;99.90
3626;DHT22;1827;50.534;8.316;2023-03-04T13:45:35;7.30;99.90
3626;DHT22;1827;50.534;8.316;2023-03-04T13:48:20;7.20;99.90
3626;DHT22;1827;50.534;8.316;2023-03-04T13:50:52;7.20;99.90
3626;DHT22;1827;50.534;8.316;2023-03-04T13:53:37;7.10;99.90
3626;DHT22;1827;50.534;8.316;2023-03-04T13:56:20;7.20;99.90
3626;DHT22;1827;50.534;8.316;2023-03-04T14:06:49;7.70;99.90
3626;DHT22;1827;50.534;8.316;2023-03-04T14:09:32;7.50;99.90
3626;DHT22;1827;50.534;8.316;2023-03-04T14:12:12;7.40;99.90
3626;DHT22;1827;50.534;8.316;2023-03-04T14:17:45;7.40;99.90
3626;DHT22;1827;50.534;8.316;2023-03-04T14:20:40;7.30;99.90
3626;DHT22;1827;50.534;8.316;2023-03-04T14:23:41;7.00;99.90
3626;DHT22;1827;50.534;8.316;2023-03-04T14:26:13;7.00;99.90
3626;DHT22;1827;50.534;8.316;2023-03-04T14:28:50;6.80;99.90
3626;DHT22;1827;50.534;8.316;2023-03-04T14:31:22;6.70;99.90
3626;DHT22;1827;50.534;8.316;2023-03-04T14:33:54;6.80;99.90
3626;DHT22;1827;50.534;8.316;2023-03-04T14:36:28;6.80;99.90
3626;DHT22;1827;50.534;8.316;2023-03-04T14:38:59;6.80;99.90
3626;DHT22;1827;50.534;8.316;2023-03-04T14:44:07;7.00;99.90
3626;DHT22;1827;50.534;8.316;2023-03-04T14:46:39;7.20;99.90
3626;DHT22;1827;50.534;8.316;2023-03-04T14:49:08;7.20;99.90
3626;DHT22;1827;50.534;8.316;2023-03-04T14:51:47;7.20;99.90
3626;DHT22;1827;50.534;8.316;2023-03-04T14:54:29;7.20;99.90
3626;DHT22;1827;50.534;8.316;2023-03-04T14:56:57;7.10;99.90
3626;DHT22;1827;50.534;8.316;2023-03-04T14:59:34;7.20;99.90
3626;DHT22;1827;50.534;8.316;2023-03-04T15:04:48;7.20;99.90
3626;DHT22;1827;50.534;8.316;2023-03-04T15:07:19;7.00;99.90
3626;DHT22;1827;50.534;8.316;2023-03-04T15:09:53;7.00;99.90
3626;DHT22;1827;50.534;8.316;2023-03-04T15:12:28;6.90;99.90
3626;DHT22;1827;50.534;8.316;2023-03-04T15:14:57;6.80;99.90
3626;DHT22;1827;50.534;8.316;2023-03-04T15:17:32;6.80;99.90
3626;DHT22;1827;50.534;8.316;2023-03-04T15:20:20;6.80;99.90
3626;DHT22;1827;50.534;8.316;2023-03-04T15:25:14;6.60;99.90
3626;DHT22;1827;50.534;8.316;2023-03-04T15:27:41;6.60;99.90
3626;DHT22;1827;50.534;8.316;2023-03-04T15:32:47;6.80;1.00
3626;DHT22;1827;50.534;8.316;2023-03-04T15:35:15;6.70;1.00
3626;DHT22;1827;50.534;8.316;2023-03-04T15:37:41;6.60;1.00
3626;DHT22;1827;50.534;8.316;2023-03-04T15:42:40;6.50;1.00
3626;DHT22;1827;50.534;8.316;2023-03-04T15:45:30;6.60;1.00
3626;DHT22;1827;50.534;8.316;2023-03-04T15:48:00;6.50;1.00
3626;DHT22;1827;50.534;8.316;2023-03-04T15:50:29;6.40;1.00
3626;DHT22;1827;50.534;8.316;2023-03-04T15:53:02;6.30;1.00
3626;DHT22;1827;50.534;8.316;2023-03-04T15:55:30;6.30;1.00
3626;DHT22;1827;50.534;8.316;2023-03-04T15:57:58;6.20;1.00
3626;DHT22;1827;50.534;8.316;2023-03-04T16:00:25;6.20;1.00
3626;DHT22;1827;50.534;8.316;2023-03-04T16:02:51;6.10;1.00
3626;DHT22;1827;50.534;8.316;2023-03-04T16:05:17;6.20;1.00
3626;DHT22;1827;50.534;8.316;2023-03-04T16:07:48;6.20;1.00
3626;DHT22;1827;50.534;8.316;2023-03-04T16:12:45;6.10;1.00
3626;DHT22;1827;50.534;8.316;2023-03-04T16:15:20;6.20;1.00
3626;DHT22;1827;50.534;8.316;2023-03-04T16:17:46;6.10;1.00
3626;DHT22;1827;50.534;8.316;2023-03-04T16:20:14;6.00;1.00
3626;DHT22;1827;50.534;8.316;2023-03-04T16:22:44;6.00;1.00
3626;DHT22;1827;50.534;8.316;2023-03-04T16:25:13;5.90;1.00
3626;DHT22;1827;50.534;8.316;2023-03-04T16:27:40;5.80;1.00
3626;DHT22;1827;50.534;8.316;2023-03-04T16:30:21;5.70;1.00
3626;DHT22;1827;50.534;8.316;2023-03-04T16:32:47;5.60;1.00
3626;DHT22;1827;50.534;8.316;2023-03-04T16:35:16;5.50;1.00
3626;DHT22;1827;50.534;8.316;2023-03-04T16:37:43;5.50;1.00
3626;DHT22;1827;50.534;8.316;2023-03-04T16:40:15;5.40;1.00
3626;DHT22;1827;50.534;8.316;2023-03-04T16:42:42;5.50;1.00
3626;DHT22;1827;50.534;8.316;2023-03-04T16:45:17;5.40;1.00
3626;DHT22;1827;50.534;8.316;2023-03-04T16:47:43;5.40;1.00
3626;DHT22;1827;50.534;8.316;2023-03-04T16:50:15;5.40;1.00
3626;DHT22;1827;50.534;8.316;2023-03-04T16:52:48;5.40;1.00
3626;DHT22;1827;50.534;8.316;2023-03-04T16:55:20;5.40;1.00
3626;DHT22;1827;50.534;8.316;2023-03-04T16:57:46;5.30;1.00
3626;DHT22;1827;50.534;8.316;2023-03-04T17:00:13;5.30;1.00
3626;DHT22;1827;50.534;8.316;2023-03-04T17:02:42;5.30;1.00
3626;DHT22;1827;50.534;8.316;2023-03-04T17:05:14;5.40;1.00
3626;DHT22;1827;50.534;8.316;2023-03-04T17:07:41;5.30;1.00
3626;DHT22;1827;50.534;8.316;2023-03-04T17:10:07;5.30;1.00
3626;DHT22;1827;50.534;8.316;2023-03-04T17:12:32;5.10;1.00
3626;DHT22;1827;50.534;8.316;2023-03-04T17:14:58;5.10;1.00
3626;DHT22;1827;50.534;8.316;2023-03-04T17:17:24;5.20;1.00
3626;DHT22;1827;50.534;8.316;2023-03-04T17:19:50;5.10;1.00
3626;DHT22;1827;50.534;8.316;2023-03-04T17:22:16;5.10;1.00
3626;DHT22;1827;50.534;8.316;2023-03-04T17:24:42;5.10;1.00
3626;DHT22;1827;50.534;8.316;2023-03-04T17:27:09;5.10;1.00
3626;DHT22;1827;50.534;8.316;2023-03-04T17:29:35;5.10;1.00
3626;DHT22;1827;50.534;8.316;2023-03-04T17:32:00;5.10;1.00
3626;DHT22;1827;50.534;8.316;2023-03-04T17:34:26;5.10;1.00
3626;DHT22;1827;50.534;8.316;2023-03-04T17:36:51;5.10;1.00
3626;DHT22;1827;50.534;8.316;2023-03-04T17:39:17;5.00;1.00
3626;DHT22;1827;50.534;8.316;2023-03-04T17:41:43;5.00;1.00
3626;DHT22;1827;50.534;8.316;2023-03-04T17:44:09;5.00;1.00
3626;DHT22;1827;50.534;8.316;2023-03-04T17:46:37;5.00;1.00
3626;DHT22;1827;50.534;8.316;2023-03-04T17:49:03;5.00;1.00
3626;DHT22;1827;50.534;8.316;2023-03-04T17:51:33;5.00;1.00
3626;DHT22;1827;50.534;8.316;2023-03-04T17:53:59;5.00;1.00
3626;DHT22;1827;50.534;8.316;2023-03-04T17:56:27;4.90;1.00
3626;DHT22;1827;50.534;8.316;2023-03-04T17:58:55;4.90;1.00
3626;DHT22;1827;50.534;8.316;2023-03-04T18:01:22;4.90;1.00
3626;DHT22;1827;50.534;8.316;2023-03-04T18:03:50;4.80;1.00
3626;DHT22;1827;50.534;8.316;2023-03-04T18:06:17;4.80;1.00
3626;DHT22;1827;50.534;8.316;2023-03-04T18:08:43;4.80;1.00
3626;DHT22;1827;50.534;8.316;2023-03-04T18:11:09;4.90;1.00
3626;DHT22;1827;50.534;8.316;2023-03-04T18:13:39;4.80;1.00
3626;DHT22;1827;50.534;8.316;2023-03-04T18:16:05;4.80;1.00
3626;DHT22;1827;50.534;8.316;2023-03-04T18:18:36;4.90;1.00
3626;DHT22;1827;50.534;8.316;2023-03-04T18:21:02;5.00;1.00
3626;DHT22;1827;50.534;8.316;2023-03-04T18:23:29;5.00;1.00
3626;DHT22;1827;50.534;8.316;2023-03-04T18:25:55;4.90;1.00
3626;DHT22;1827;50.534;8.316;2023-03-04T18:28:22;4.90;1.00
3626;DHT22;1827;50.534;8.316;2023-03-04T18:30:52;4.90;1.00
3626;DHT22;1827;50.534;8.316;2023-03-04T18:33:18;4.80;1.00
3626;DHT22;1827;50.534;8.316;2023-03-04T18:35:44;4.80;1.00
3626;DHT22;1827;50.534;8.316;2023-03-04T18:38:10;4.80;1.00